sensor_id;sensor_type;location;lat;lon;timestamp;P1;durP1;ratioP1;P2;durP2;ratioP2
62844;SDS011;48929;47.910;20.390;2023-02-04T00:00:44;6.65;;;3.80;;
62844;SDS011;48929;47.910;20.390;2023-02-04T00:03:14;5.93;;;3.38;;
62844;SDS011;48929;47.910;20.390;2023-02-04T00:05:46;6.53;;;3.60;;
62844;SDS011;48929;47.910;20.390;2023-02-04T00:08:15;6.88;;;3.67;;
62844;SDS011;48929;47.910;20.390;2023-02-04T00:10:43;8.25;;;3.35;;
62844;SDS011;48929;47.910;20.390;2023-02-04T00:13:13;5.70;;;3.00;;
62844;SDS011;48929;47.910;20.390;2023-02-04T00:15:41;8.23;;;3.50;;
62844;SDS011;48929;47.910;20.390;2023-02-04T00:18:09;9.02;;;3.30;;
62844;SDS011;48929;47.910;20.390;2023-02-04T00:20:38;8.55;;;3.28;;
62844;SDS011;48929;47.910;20.390;2023-02-04T00:23:07;4.53;;;2.17;;
62844;SDS011;48929;47.910;20.390;2023-02-04T00:25:35;10.70;;;3.88;;
62844;SDS011;48929;47.910;20.390;2023-02-04T00:28:04;5.28;;;3.20;;
62844;SDS011;48929;47.910;20.390;2023-02-04T00:30:32;8.07;;;3.35;;
62844;SDS011;48929;47.910;20.390;2023-02-04T00:33:01;8.18;;;3.45;;
62844;SDS011;48929;47.910;20.390;2023-02-04T00:35:29;9.90;;;3.28;;
62844;SDS011;48929;47.910;20.390;2023-02-04T00:37:58;8.70;;;3.03;;
62844;SDS011;48929;47.910;20.390;2023-02-04T00:40:28;9.93;;;3.30;;
62844;SDS011;48929;47.910;20.390;2023-02-04T00:42:57;8.85;;;3.15;;
62844;SDS011;48929;47.910;20.390;2023-02-04T00:45:25;8.70;;;3.00;;
62844;SDS011;48929;47.910;20.390;2023-02-04T00:47:54;7.18;;;3.03;;
62844;SDS011;48929;47.910;20.390;2023-02-04T00:50:23;10.50;;;3.28;;
62844;SDS011;48929;47.910;20.390;2023-02-04T00:52:51;9.50;;;3.47;;
62844;SDS011;48929;47.910;20.390;2023-02-04T00:55:19;7.00;;;3.42;;
62844;SDS011;48929;47.910;20.390;2023-02-04T00:57:49;4.88;;;2.55;;
62844;SDS011;48929;47.910;20.390;2023-02-04T01:00:18;5.22;;;2.47;;
62844;SDS011;48929;47.910;20.390;2023-02-04T01:02:46;7.32;;;2.97;;
62844;SDS011;48929;47.910;20.390;2023-02-04T01:05:18;6.80;;;2.95;;
62844;SDS011;48929;47.910;20.390;2023-02-04T01:07:46;5.45;;;2.60;;
62844;SDS011;48929;47.910;20.390;2023-02-04T01:10:15;7.22;;;3.10;;
62844;SDS011;48929;47.910;20.390;2023-02-04T01:12:43;5.82;;;2.55;;
62844;SDS011;48929;47.910;20.390;2023-02-04T01:15:13;7.28;;;3.25;;
62844;SDS011;48929;47.910;20.390;2023-02-04T01:17:41;8.60;;;2.78;;
62844;SDS011;48929;47.910;20.390;2023-02-04T01:20:10;12.75;;;3.67;;
62844;SDS011;48929;47.910;20.390;2023-02-04T01:22:38;7.05;;;3.10;;
62844;SDS011;48929;47.910;20.390;2023-02-04T01:25:07;9.05;;;3.60;;
62844;SDS011;48929;47.910;20.390;2023-02-04T01:27:35;15.10;;;4.40;;
62844;SDS011;48929;47.910;20.390;2023-02-04T01:30:04;12.82;;;3.83;;
62844;SDS011;48929;47.910;20.390;2023-02-04T01:32:34;9.93;;;3.10;;
62844;SDS011;48929;47.910;20.390;2023-02-04T01:35:02;8.43;;;3.05;;
62844;SDS011;48929;47.910;20.390;2023-02-04T01:37:30;6.45;;;2.72;;
62844;SDS011;48929;47.910;20.390;2023-02-04T01:39:59;6.53;;;2.72;;
62844;SDS011;48929;47.910;20.390;2023-02-04T01:42:27;7.43;;;3.65;;
62844;SDS011;48929;47.910;20.390;2023-02-04T01:44:55;3.38;;;2.08;;
62844;SDS011;48929;47.910;20.390;2023-02-04T01:47:23;5.38;;;2.75;;
62844;SDS011;48929;47.910;20.390;2023-02-04T01:49:53;5.50;;;2.78;;
62844;SDS011;48929;47.910;20.390;2023-02-04T01:52:22;10.65;;;3.13;;
62844;SDS011;48929;47.910;20.390;2023-02-04T01:54:51;5.30;;;2.45;;
62844;SDS011;48929;47.910;20.390;2023-02-04T01:57:20;9.20;;;2.60;;
62844;SDS011;48929;47.910;20.390;2023-02-04T01:59:53;6.47;;;2.53;;
62844;SDS011;48929;47.910;20.390;2023-02-04T02:02:38;5.65;;;2.40;;
62844;SDS011;48929;47.910;20.390;2023-02-04T02:05:08;7.03;;;3.10;;
62844;SDS011;48929;47.910;20.390;2023-02-04T02:07:38;3.10;;;1.88;;
62844;SDS011;48929;47.910;20.390;2023-02-04T02:10:09;9.00;;;2.53;;
62844;SDS011;48929;47.910;20.390;2023-02-04T02:12:38;8.98;;;3.45;;
62844;SDS011;48929;47.910;20.390;2023-02-04T02:15:08;8.70;;;3.13;;
62844;SDS011;48929;47.910;20.390;2023-02-04T02:17:36;11.95;;;3.45;;
62844;SDS011;48929;47.910;20.390;2023-02-04T02:20:05;7.88;;;2.97;;
62844;SDS011;48929;47.910;20.390;2023-02-04T02:22:36;9.80;;;3.03;;
62844;SDS011;48929;47.910;20.390;2023-02-04T02:25:12;6.85;;;3.00;;
62844;SDS011;48929;47.910;20.390;2023-02-04T02:27:41;6.63;;;2.67;;
62844;SDS011;48929;47.910;20.390;2023-02-04T02:30:10;9.93;;;2.97;;
62844;SDS011;48929;47.910;20.390;2023-02-04T02:32:40;8.00;;;2.75;;
62844;SDS011;48929;47.910;20.390;2023-02-04T02:35:08;8.05;;;2.60;;
62844;SDS011;48929;47.910;20.390;2023-02-04T02:37:37;7.32;;;3.25;;
62844;SDS011;48929;47.910;20.390;2023-02-04T02:40:05;6.43;;;2.33;;
62844;SDS011;48929;47.910;20.390;2023-02-04T02:42:35;8.10;;;3.28;;
62844;SDS011;48929;47.910;20.390;2023-02-04T02:45:05;7.55;;;2.80;;
62844;SDS011;48929;47.910;20.390;2023-02-04T02:47:35;9.85;;;3.53;;
62844;SDS011;48929;47.910;20.390;2023-02-04T02:50:03;12.00;;;3.00;;
62844;SDS011;48929;47.910;20.390;2023-02-04T02:52:32;6.20;;;2.50;;
62844;SDS011;48929;47.910;20.390;2023-02-04T02:55:00;4.60;;;2.50;;
62844;SDS011;48929;47.910;20.390;2023-02-04T02:57:28;5.05;;;2.50;;
62844;SDS011;48929;47.910;20.390;2023-02-04T02:59:58;6.65;;;3.20;;
62844;SDS011;48929;47.910;20.390;2023-02-04T03:02:26;10.10;;;3.20;;
62844;SDS011;48929;47.910;20.390;2023-02-04T03:04:55;7.88;;;3.13;;
62844;SDS011;48929;47.910;20.390;2023-02-04T03:07:26;5.97;;;2.88;;
62844;SDS011;48929;47.910;20.390;2023-02-04T03:09:55;7.35;;;3.05;;
62844;SDS011;48929;47.910;20.390;2023-02-04T03:12:24;8.60;;;3.35;;
62844;SDS011;48929;47.910;20.390;2023-02-04T03:14:52;8.68;;;3.50;;
62844;SDS011;48929;47.910;20.390;2023-02-04T03:17:22;8.68;;;3.38;;
62844;SDS011;48929;47.910;20.390;2023-02-04T03:19:51;8.20;;;2.80;;
62844;SDS011;48929;47.910;20.390;2023-02-04T03:22:19;7.53;;;3.28;;
62844;SDS011;48929;47.910;20.390;2023-02-04T03:24:47;7.43;;;3.38;;
62844;SDS011;48929;47.910;20.390;2023-02-04T03:27:16;6.85;;;2.92;;
62844;SDS011;48929;47.910;20.390;2023-02-04T03:29:47;7.97;;;3.40;;
62844;SDS011;48929;47.910;20.390;2023-02-04T03:32:15;5.78;;;2.90;;
62844;SDS011;48929;47.910;20.390;2023-02-04T03:34:45;10.02;;;3.92;;
62844;SDS011;48929;47.910;20.390;2023-02-04T03:37:13;6.72;;;3.15;;
62844;SDS011;48929;47.910;20.390;2023-02-04T03:39:42;5.68;;;2.65;;
62844;SDS011;48929;47.910;20.390;2023-02-04T03:42:10;8.30;;;3.50;;
62844;SDS011;48929;47.910;20.390;2023-02-04T03:44:39;8.68;;;2.88;;
62844;SDS011;48929;47.910;20.390;2023-02-04T03:47:07;4.85;;;2.95;;
62844;SDS011;48929;47.910;20.390;2023-02-04T03:49:36;7.85;;;2.65;;
62844;SDS011;48929;47.910;20.390;2023-02-04T03:52:05;8.00;;;2.50;;
62844;SDS011;48929;47.910;20.390;2023-02-04T03:54:34;7.30;;;2.67;;
62844;SDS011;48929;47.910;20.390;2023-02-04T03:57:02;6.72;;;3.10;;
62844;SDS011;48929;47.910;20.390;2023-02-04T03:59:30;5.45;;;2.63;;
62844;SDS011;48929;47.910;20.390;2023-02-04T04:01:59;7.47;;;2.50;;
62844;SDS011;48929;47.910;20.390;2023-02-04T04:04:27;9.98;;;3.08;;
62844;SDS011;48929;47.910;20.390;2023-02-04T04:06:55;3.63;;;1.83;;
62844;SDS011;48929;47.910;20.390;2023-02-04T04:09:25;7.10;;;2.60;;
62844;SDS011;48929;47.910;20.390;2023-02-04T04:11:54;5.25;;;2.63;;
62844;SDS011;48929;47.910;20.390;2023-02-04T04:14:22;6.68;;;2.80;;
62844;SDS011;48929;47.910;20.390;2023-02-04T04:16:50;6.35;;;2.55;;
62844;SDS011;48929;47.910;20.390;2023-02-04T04:19:18;7.47;;;2.50;;
62844;SDS011;48929;47.910;20.390;2023-02-04T04:21:47;7.53;;;2.45;;
62844;SDS011;48929;47.910;20.390;2023-02-04T04:24:15;6.38;;;2.35;;
62844;SDS011;48929;47.910;20.390;2023-02-04T04:26:45;3.55;;;2.13;;
62844;SDS011;48929;47.910;20.390;2023-02-04T04:29:13;3.53;;;2.53;;
62844;SDS011;48929;47.910;20.390;2023-02-04T04:31:41;6.03;;;2.83;;
62844;SDS011;48929;47.910;20.390;2023-02-04T04:34:10;9.27;;;3.00;;
62844;SDS011;48929;47.910;20.390;2023-02-04T04:36:41;8.02;;;2.88;;
62844;SDS011;48929;47.910;20.390;2023-02-04T04:39:09;9.20;;;3.03;;
62844;SDS011;48929;47.910;20.390;2023-02-04T04:41:37;8.45;;;3.17;;
62844;SDS011;48929;47.910;20.390;2023-02-04T04:44:08;5.35;;;3.15;;
62844;SDS011;48929;47.910;20.390;2023-02-04T04:46:36;6.63;;;3.30;;
62844;SDS011;48929;47.910;20.390;2023-02-04T04:49:06;9.48;;;3.05;;
62844;SDS011;48929;47.910;20.390;2023-02-04T04:51:34;5.38;;;2.45;;
62844;SDS011;48929;47.910;20.390;2023-02-04T04:54:03;8.43;;;2.92;;
62844;SDS011;48929;47.910;20.390;2023-02-04T04:56:32;11.80;;;3.05;;
62844;SDS011;48929;47.910;20.390;2023-02-04T04:59:00;4.13;;;2.45;;
62844;SDS011;48929;47.910;20.390;2023-02-04T05:01:31;7.15;;;3.00;;
62844;SDS011;48929;47.910;20.390;2023-02-04T05:04:01;7.18;;;3.25;;
62844;SDS011;48929;47.910;20.390;2023-02-04T05:06:30;5.32;;;2.85;;
62844;SDS011;48929;47.910;20.390;2023-02-04T05:08:59;4.68;;;2.58;;
62844;SDS011;48929;47.910;20.390;2023-02-04T05:11:27;8.82;;;2.88;;
62844;SDS011;48929;47.910;20.390;2023-02-04T05:14:01;6.68;;;2.58;;
62844;SDS011;48929;47.910;20.390;2023-02-04T05:16:31;5.57;;;2.55;;
62844;SDS011;48929;47.910;20.390;2023-02-04T05:19:00;5.68;;;3.50;;
62844;SDS011;48929;47.910;20.390;2023-02-04T05:21:28;7.93;;;4.20;;
62844;SDS011;48929;47.910;20.390;2023-02-04T05:23:57;11.15;;;3.95;;
62844;SDS011;48929;47.910;20.390;2023-02-04T05:26:25;8.55;;;2.97;;
62844;SDS011;48929;47.910;20.390;2023-02-04T05:28:57;4.80;;;2.80;;
62844;SDS011;48929;47.910;20.390;2023-02-04T05:31:27;8.70;;;4.60;;
62844;SDS011;48929;47.910;20.390;2023-02-04T05:33:57;6.82;;;3.53;;
62844;SDS011;48929;47.910;20.390;2023-02-04T05:36:26;12.43;;;4.78;;
62844;SDS011;48929;47.910;20.390;2023-02-04T05:38:54;7.88;;;2.72;;
62844;SDS011;48929;47.910;20.390;2023-02-04T05:41:23;5.85;;;3.20;;
62844;SDS011;48929;47.910;20.390;2023-02-04T05:43:51;5.30;;;3.40;;
62844;SDS011;48929;47.910;20.390;2023-02-04T05:46:21;4.30;;;2.58;;
62844;SDS011;48929;47.910;20.390;2023-02-04T05:48:49;7.15;;;2.60;;
62844;SDS011;48929;47.910;20.390;2023-02-04T05:51:19;4.90;;;2.38;;
62844;SDS011;48929;47.910;20.390;2023-02-04T05:53:47;4.57;;;2.45;;
62844;SDS011;48929;47.910;20.390;2023-02-04T05:56:16;5.90;;;2.67;;
62844;SDS011;48929;47.910;20.390;2023-02-04T05:58:44;5.57;;;2.28;;
62844;SDS011;48929;47.910;20.390;2023-02-04T06:01:13;7.03;;;2.42;;
62844;SDS011;48929;47.910;20.390;2023-02-04T06:03:41;9.57;;;3.13;;
62844;SDS011;48929;47.910;20.390;2023-02-04T06:06:10;7.85;;;2.83;;
62844;SDS011;48929;47.910;20.390;2023-02-04T06:08:40;10.65;;;3.00;;
62844;SDS011;48929;47.910;20.390;2023-02-04T06:11:09;5.72;;;2.80;;
62844;SDS011;48929;47.910;20.390;2023-02-04T06:13:37;9.57;;;2.80;;
62844;SDS011;48929;47.910;20.390;2023-02-04T06:16:05;6.47;;;2.78;;
62844;SDS011;48929;47.910;20.390;2023-02-04T06:18:34;5.00;;;2.83;;
62844;SDS011;48929;47.910;20.390;2023-02-04T06:21:03;5.00;;;3.28;;
62844;SDS011;48929;47.910;20.390;2023-02-04T06:23:31;8.00;;;2.80;;
62844;SDS011;48929;47.910;20.390;2023-02-04T06:26:01;5.68;;;2.50;;
62844;SDS011;48929;47.910;20.390;2023-02-04T06:28:30;6.63;;;3.10;;
62844;SDS011;48929;47.910;20.390;2023-02-04T06:31:01;7.15;;;3.55;;
62844;SDS011;48929;47.910;20.390;2023-02-04T06:33:30;13.07;;;4.25;;
62844;SDS011;48929;47.910;20.390;2023-02-04T06:35:58;6.43;;;3.05;;
62844;SDS011;48929;47.910;20.390;2023-02-04T06:38:27;8.93;;;3.75;;
62844;SDS011;48929;47.910;20.390;2023-02-04T06:40:55;8.65;;;4.00;;
62844;SDS011;48929;47.910;20.390;2023-02-04T06:43:24;10.43;;;3.72;;
62844;SDS011;48929;47.910;20.390;2023-02-04T06:45:53;6.22;;;3.30;;
62844;SDS011;48929;47.910;20.390;2023-02-04T06:48:26;9.70;;;3.20;;
62844;SDS011;48929;47.910;20.390;2023-02-04T06:50:56;8.85;;;4.20;;
62844;SDS011;48929;47.910;20.390;2023-02-04T06:53:25;8.02;;;3.85;;
62844;SDS011;48929;47.910;20.390;2023-02-04T06:55:53;8.00;;;4.65;;
62844;SDS011;48929;47.910;20.390;2023-02-04T06:58:22;8.93;;;4.20;;
62844;SDS011;48929;47.910;20.390;2023-02-04T07:00:51;8.65;;;3.30;;
62844;SDS011;48929;47.910;20.390;2023-02-04T07:03:19;7.47;;;2.53;;
62844;SDS011;48929;47.910;20.390;2023-02-04T07:05:48;4.95;;;3.20;;
62844;SDS011;48929;47.910;20.390;2023-02-04T07:08:16;9.68;;;4.32;;
62844;SDS011;48929;47.910;20.390;2023-02-04T07:10:45;11.02;;;6.45;;
62844;SDS011;48929;47.910;20.390;2023-02-04T07:13:13;10.88;;;6.05;;
62844;SDS011;48929;47.910;20.390;2023-02-04T07:15:42;14.95;;;6.30;;
62844;SDS011;48929;47.910;20.390;2023-02-04T07:18:12;18.83;;;8.35;;
62844;SDS011;48929;47.910;20.390;2023-02-04T07:20:40;39.45;;;15.18;;
62844;SDS011;48929;47.910;20.390;2023-02-04T07:23:09;14.15;;;6.90;;
62844;SDS011;48929;47.910;20.390;2023-02-04T07:25:37;20.80;;;8.98;;
62844;SDS011;48929;47.910;20.390;2023-02-04T07:28:05;11.13;;;6.05;;
62844;SDS011;48929;47.910;20.390;2023-02-04T07:30:34;6.38;;;3.70;;
62844;SDS011;48929;47.910;20.390;2023-02-04T07:33:02;7.70;;;4.82;;
62844;SDS011;48929;47.910;20.390;2023-02-04T07:35:32;9.48;;;3.85;;
62844;SDS011;48929;47.910;20.390;2023-02-04T07:38:00;7.63;;;3.95;;
62844;SDS011;48929;47.910;20.390;2023-02-04T07:40:28;5.85;;;3.83;;
62844;SDS011;48929;47.910;20.390;2023-02-04T07:42:57;6.68;;;4.05;;
62844;SDS011;48929;47.910;20.390;2023-02-04T07:45:26;6.70;;;3.70;;
62844;SDS011;48929;47.910;20.390;2023-02-04T07:47:54;6.03;;;2.75;;
62844;SDS011;48929;47.910;20.390;2023-02-04T07:50:22;7.03;;;3.22;;
62844;SDS011;48929;47.910;20.390;2023-02-04T07:52:52;5.90;;;3.63;;
62844;SDS011;48929;47.910;20.390;2023-02-04T07:55:20;8.35;;;3.70;;
62844;SDS011;48929;47.910;20.390;2023-02-04T07:57:49;10.13;;;4.18;;
62844;SDS011;48929;47.910;20.390;2023-02-04T08:00:18;7.15;;;3.10;;
62844;SDS011;48929;47.910;20.390;2023-02-04T08:02:46;5.10;;;2.40;;
62844;SDS011;48929;47.910;20.390;2023-02-04T08:05:15;4.68;;;2.50;;
62844;SDS011;48929;47.910;20.390;2023-02-04T08:07:43;4.70;;;2.33;;
62844;SDS011;48929;47.910;20.390;2023-02-04T08:10:13;6.43;;;3.08;;
62844;SDS011;48929;47.910;20.390;2023-02-04T08:12:41;5.97;;;2.70;;
62844;SDS011;48929;47.910;20.390;2023-02-04T08:15:09;5.53;;;2.88;;
62844;SDS011;48929;47.910;20.390;2023-02-04T08:17:37;4.75;;;2.60;;
62844;SDS011;48929;47.910;20.390;2023-02-04T08:20:07;6.15;;;3.13;;
62844;SDS011;48929;47.910;20.390;2023-02-04T08:22:35;4.22;;;2.20;;
62844;SDS011;48929;47.910;20.390;2023-02-04T08:25:04;6.15;;;3.20;;
62844;SDS011;48929;47.910;20.390;2023-02-04T08:27:34;4.70;;;2.97;;
62844;SDS011;48929;47.910;20.390;2023-02-04T08:30:02;4.32;;;2.40;;
62844;SDS011;48929;47.910;20.390;2023-02-04T08:32:31;4.55;;;2.40;;
62844;SDS011;48929;47.910;20.390;2023-02-04T08:35:00;3.90;;;2.13;;
62844;SDS011;48929;47.910;20.390;2023-02-04T08:37:32;5.15;;;2.70;;
62844;SDS011;48929;47.910;20.390;2023-02-04T08:40:01;4.88;;;2.67;;
62844;SDS011;48929;47.910;20.390;2023-02-04T08:42:30;2.17;;;1.65;;
62844;SDS011;48929;47.910;20.390;2023-02-04T08:45:00;4.43;;;1.95;;
62844;SDS011;48929;47.910;20.390;2023-02-04T08:47:29;4.47;;;2.47;;
62844;SDS011;48929;47.910;20.390;2023-02-04T08:50:01;4.65;;;2.13;;
62844;SDS011;48929;47.910;20.390;2023-02-04T08:52:30;3.30;;;2.20;;
62844;SDS011;48929;47.910;20.390;2023-02-04T08:54:59;4.45;;;2.47;;
62844;SDS011;48929;47.910;20.390;2023-02-04T08:57:28;3.25;;;2.20;;
62844;SDS011;48929;47.910;20.390;2023-02-04T08:59:56;3.97;;;2.17;;
62844;SDS011;48929;47.910;20.390;2023-02-04T09:02:26;3.13;;;2.10;;
62844;SDS011;48929;47.910;20.390;2023-02-04T09:04:55;3.72;;;2.20;;
62844;SDS011;48929;47.910;20.390;2023-02-04T09:07:24;3.42;;;2.25;;
62844;SDS011;48929;47.910;20.390;2023-02-04T09:09:53;5.78;;;2.67;;
62844;SDS011;48929;47.910;20.390;2023-02-04T09:12:22;2.67;;;1.95;;
62844;SDS011;48929;47.910;20.390;2023-02-04T09:14:51;2.38;;;1.65;;
62844;SDS011;48929;47.910;20.390;2023-02-04T09:17:19;3.88;;;2.08;;
62844;SDS011;48929;47.910;20.390;2023-02-04T09:19:52;3.85;;;2.22;;
62844;SDS011;48929;47.910;20.390;2023-02-04T09:22:20;5.15;;;2.83;;
62844;SDS011;48929;47.910;20.390;2023-02-04T09:24:49;2.50;;;1.80;;
62844;SDS011;48929;47.910;20.390;2023-02-04T09:27:17;3.38;;;1.98;;
62844;SDS011;48929;47.910;20.390;2023-02-04T09:29:46;3.97;;;2.00;;
62844;SDS011;48929;47.910;20.390;2023-02-04T09:32:14;6.63;;;3.63;;
62844;SDS011;48929;47.910;20.390;2023-02-04T09:34:44;3.85;;;2.30;;
62844;SDS011;48929;47.910;20.390;2023-02-04T09:37:15;2.55;;;1.77;;
62844;SDS011;48929;47.910;20.390;2023-02-04T09:39:45;4.05;;;2.42;;
62844;SDS011;48929;47.910;20.390;2023-02-04T09:42:14;3.85;;;2.20;;
62844;SDS011;48929;47.910;20.390;2023-02-04T09:44:43;2.47;;;1.80;;
62844;SDS011;48929;47.910;20.390;2023-02-04T09:47:12;4.05;;;2.22;;
62844;SDS011;48929;47.910;20.390;2023-02-04T09:49:43;2.83;;;1.92;;
62844;SDS011;48929;47.910;20.390;2023-02-04T09:52:13;3.33;;;2.00;;
62844;SDS011;48929;47.910;20.390;2023-02-04T09:54:43;8.35;;;3.13;;
62844;SDS011;48929;47.910;20.390;2023-02-04T09:57:12;4.25;;;2.30;;
62844;SDS011;48929;47.910;20.390;2023-02-04T09:59:44;4.22;;;2.25;;
62844;SDS011;48929;47.910;20.390;2023-02-04T10:02:17;3.63;;;2.00;;
62844;SDS011;48929;47.910;20.390;2023-02-04T10:04:47;3.38;;;1.80;;
62844;SDS011;48929;47.910;20.390;2023-02-04T10:07:17;3.05;;;1.83;;
62844;SDS011;48929;47.910;20.390;2023-02-04T10:09:49;2.50;;;1.70;;
62844;SDS011;48929;47.910;20.390;2023-02-04T10:12:18;2.83;;;1.75;;
62844;SDS011;48929;47.910;20.390;2023-02-04T10:14:47;4.20;;;2.63;;
62844;SDS011;48929;47.910;20.390;2023-02-04T10:17:17;4.78;;;2.63;;
62844;SDS011;48929;47.910;20.390;2023-02-04T10:19:47;3.67;;;2.22;;
62844;SDS011;48929;47.910;20.390;2023-02-04T10:22:17;1.63;;;1.40;;
62844;SDS011;48929;47.910;20.390;2023-02-04T10:24:46;3.75;;;2.33;;
62844;SDS011;48929;47.910;20.390;2023-02-04T10:27:17;2.97;;;2.13;;
62844;SDS011;48929;47.910;20.390;2023-02-04T10:29:53;3.03;;;1.95;;
62844;SDS011;48929;47.910;20.390;2023-02-04T10:32:26;4.75;;;2.20;;
62844;SDS011;48929;47.910;20.390;2023-02-04T10:34:58;3.10;;;1.98;;
62844;SDS011;48929;47.910;20.390;2023-02-04T10:37:26;2.83;;;1.98;;
62844;SDS011;48929;47.910;20.390;2023-02-04T10:39:57;3.25;;;2.10;;
62844;SDS011;48929;47.910;20.390;2023-02-04T10:42:27;3.45;;;2.05;;
62844;SDS011;48929;47.910;20.390;2023-02-04T10:44:56;3.90;;;2.05;;
62844;SDS011;48929;47.910;20.390;2023-02-04T10:47:26;2.63;;;1.85;;
62844;SDS011;48929;47.910;20.390;2023-02-04T10:49:59;3.13;;;2.13;;
62844;SDS011;48929;47.910;20.390;2023-02-04T10:52:33;2.63;;;2.00;;
62844;SDS011;48929;47.910;20.390;2023-02-04T10:55:02;4.35;;;2.47;;
62844;SDS011;48929;47.910;20.390;2023-02-04T10:57:33;2.15;;;1.92;;
62844;SDS011;48929;47.910;20.390;2023-02-04T11:00:03;3.33;;;2.42;;
62844;SDS011;48929;47.910;20.390;2023-02-04T11:02:40;2.88;;;1.95;;
62844;SDS011;48929;47.910;20.390;2023-02-04T11:05:12;3.40;;;1.70;;
62844;SDS011;48929;47.910;20.390;2023-02-04T11:07:41;3.80;;;2.17;;
62844;SDS011;48929;47.910;20.390;2023-02-04T11:10:11;2.85;;;1.88;;
62844;SDS011;48929;47.910;20.390;2023-02-04T11:12:43;4.22;;;2.30;;
62844;SDS011;48929;47.910;20.390;2023-02-04T11:18:01;4.28;;;2.45;;
62844;SDS011;48929;47.910;20.390;2023-02-04T11:20:31;3.35;;;2.38;;
62844;SDS011;48929;47.910;20.390;2023-02-04T11:23:13;4.63;;;2.20;;
62844;SDS011;48929;47.910;20.390;2023-02-04T11:25:41;4.90;;;2.80;;
62844;SDS011;48929;47.910;20.390;2023-02-04T11:28:15;4.93;;;2.22;;
62844;SDS011;48929;47.910;20.390;2023-02-04T11:30:44;4.97;;;2.67;;
62844;SDS011;48929;47.910;20.390;2023-02-04T11:33:20;3.65;;;2.10;;
62844;SDS011;48929;47.910;20.390;2023-02-04T11:36:02;4.55;;;2.30;;
62844;SDS011;48929;47.910;20.390;2023-02-04T11:38:31;8.30;;;3.92;;
62844;SDS011;48929;47.910;20.390;2023-02-04T11:41:21;2.78;;;1.90;;
62844;SDS011;48929;47.910;20.390;2023-02-04T11:43:52;5.07;;;2.60;;
62844;SDS011;48929;47.910;20.390;2023-02-04T11:46:22;2.40;;;1.58;;
62844;SDS011;48929;47.910;20.390;2023-02-04T11:48:51;4.45;;;2.00;;
62844;SDS011;48929;47.910;20.390;2023-02-04T11:51:21;9.20;;;4.40;;
62844;SDS011;48929;47.910;20.390;2023-02-04T11:53:51;4.20;;;2.40;;
62844;SDS011;48929;47.910;20.390;2023-02-04T11:56:20;4.25;;;2.53;;
62844;SDS011;48929;47.910;20.390;2023-02-04T11:58:49;3.65;;;2.20;;
62844;SDS011;48929;47.910;20.390;2023-02-04T12:01:21;2.35;;;1.70;;
62844;SDS011;48929;47.910;20.390;2023-02-04T12:03:55;3.65;;;2.00;;
62844;SDS011;48929;47.910;20.390;2023-02-04T12:06:24;4.47;;;2.53;;
62844;SDS011;48929;47.910;20.390;2023-02-04T12:09:03;3.45;;;2.17;;
62844;SDS011;48929;47.910;20.390;2023-02-04T12:11:32;3.45;;;2.00;;
62844;SDS011;48929;47.910;20.390;2023-02-04T12:14:05;3.35;;;2.03;;
62844;SDS011;48929;47.910;20.390;2023-02-04T12:16:41;4.05;;;2.20;;
62844;SDS011;48929;47.910;20.390;2023-02-04T12:19:11;4.43;;;1.88;;
62844;SDS011;48929;47.910;20.390;2023-02-04T12:21:42;3.58;;;1.90;;
62844;SDS011;48929;47.910;20.390;2023-02-04T12:24:11;2.92;;;1.95;;
62844;SDS011;48929;47.910;20.390;2023-02-04T12:26:39;3.58;;;2.20;;
62844;SDS011;48929;47.910;20.390;2023-02-04T12:29:08;4.15;;;2.55;;
62844;SDS011;48929;47.910;20.390;2023-02-04T12:31:37;5.28;;;2.50;;
62844;SDS011;48929;47.910;20.390;2023-02-04T12:34:10;8.48;;;3.28;;
62844;SDS011;48929;47.910;20.390;2023-02-04T12:36:39;4.18;;;2.20;;
62844;SDS011;48929;47.910;20.390;2023-02-04T12:39:08;7.00;;;2.92;;
62844;SDS011;48929;47.910;20.390;2023-02-04T12:41:36;5.38;;;2.88;;
62844;SDS011;48929;47.910;20.390;2023-02-04T12:44:06;5.35;;;2.33;;
62844;SDS011;48929;47.910;20.390;2023-02-04T12:46:34;4.13;;;2.25;;
62844;SDS011;48929;47.910;20.390;2023-02-04T12:49:03;5.35;;;2.90;;
62844;SDS011;48929;47.910;20.390;2023-02-04T12:51:35;5.40;;;2.80;;
62844;SDS011;48929;47.910;20.390;2023-02-04T12:54:03;5.30;;;2.42;;
62844;SDS011;48929;47.910;20.390;2023-02-04T12:56:32;4.72;;;2.60;;
62844;SDS011;48929;47.910;20.390;2023-02-04T12:59:01;3.97;;;2.05;;
62844;SDS011;48929;47.910;20.390;2023-02-04T13:01:30;5.63;;;2.17;;
62844;SDS011;48929;47.910;20.390;2023-02-04T13:03:59;3.33;;;2.05;;
62844;SDS011;48929;47.910;20.390;2023-02-04T13:06:28;3.28;;;1.80;;
62844;SDS011;48929;47.910;20.390;2023-02-04T13:08:59;2.95;;;2.03;;
62844;SDS011;48929;47.910;20.390;2023-02-04T13:11:28;4.60;;;2.00;;
62844;SDS011;48929;47.910;20.390;2023-02-04T13:13:57;3.83;;;2.20;;
62844;SDS011;48929;47.910;20.390;2023-02-04T13:16:26;4.38;;;2.50;;
62844;SDS011;48929;47.910;20.390;2023-02-04T13:18:55;3.60;;;2.10;;
62844;SDS011;48929;47.910;20.390;2023-02-04T13:21:25;3.67;;;2.33;;
62844;SDS011;48929;47.910;20.390;2023-02-04T13:23:57;2.28;;;1.70;;
62844;SDS011;48929;47.910;20.390;2023-02-04T13:26:27;3.80;;;2.33;;
62844;SDS011;48929;47.910;20.390;2023-02-04T13:28:56;3.70;;;2.30;;
62844;SDS011;48929;47.910;20.390;2023-02-04T13:31:25;4.03;;;2.10;;
62844;SDS011;48929;47.910;20.390;2023-02-04T13:33:54;3.60;;;2.25;;
62844;SDS011;48929;47.910;20.390;2023-02-04T13:36:23;4.15;;;2.00;;
62844;SDS011;48929;47.910;20.390;2023-02-04T13:38:53;3.78;;;2.35;;
62844;SDS011;48929;47.910;20.390;2023-02-04T13:41:22;3.15;;;2.17;;
62844;SDS011;48929;47.910;20.390;2023-02-04T13:43:53;2.67;;;1.65;;
62844;SDS011;48929;47.910;20.390;2023-02-04T13:46:22;2.20;;;1.42;;
62844;SDS011;48929;47.910;20.390;2023-02-04T13:48:50;3.88;;;2.53;;
62844;SDS011;48929;47.910;20.390;2023-02-04T13:51:19;3.90;;;2.10;;
62844;SDS011;48929;47.910;20.390;2023-02-04T13:53:48;3.78;;;2.00;;
62844;SDS011;48929;47.910;20.390;2023-02-04T13:56:16;3.85;;;2.17;;
62844;SDS011;48929;47.910;20.390;2023-02-04T13:58:45;4.78;;;2.63;;
62844;SDS011;48929;47.910;20.390;2023-02-04T14:01:16;4.38;;;2.17;;
62844;SDS011;48929;47.910;20.390;2023-02-04T14:03:45;5.90;;;2.58;;
62844;SDS011;48929;47.910;20.390;2023-02-04T14:06:14;3.72;;;2.08;;
62844;SDS011;48929;47.910;20.390;2023-02-04T14:08:46;7.07;;;3.00;;
62844;SDS011;48929;47.910;20.390;2023-02-04T14:11:15;5.53;;;2.25;;
62844;SDS011;48929;47.910;20.390;2023-02-04T14:13:44;6.00;;;2.83;;
62844;SDS011;48929;47.910;20.390;2023-02-04T14:16:13;3.55;;;2.13;;
62844;SDS011;48929;47.910;20.390;2023-02-04T14:18:43;5.47;;;2.97;;
62844;SDS011;48929;47.910;20.390;2023-02-04T14:21:12;3.95;;;2.42;;
62844;SDS011;48929;47.910;20.390;2023-02-04T14:23:42;7.00;;;3.25;;
62844;SDS011;48929;47.910;20.390;2023-02-04T14:26:11;10.27;;;4.55;;
62844;SDS011;48929;47.910;20.390;2023-02-04T14:28:40;3.47;;;1.95;;
62844;SDS011;48929;47.910;20.390;2023-02-04T14:31:09;4.03;;;2.40;;
62844;SDS011;48929;47.910;20.390;2023-02-04T14:33:38;3.53;;;1.92;;
62844;SDS011;48929;47.910;20.390;2023-02-04T14:36:08;4.72;;;2.50;;
62844;SDS011;48929;47.910;20.390;2023-02-04T14:38:36;2.92;;;1.98;;
62844;SDS011;48929;47.910;20.390;2023-02-04T14:41:05;3.63;;;2.22;;
62844;SDS011;48929;47.910;20.390;2023-02-04T14:43:34;3.05;;;1.60;;
62844;SDS011;48929;47.910;20.390;2023-02-04T14:46:03;2.78;;;1.77;;
62844;SDS011;48929;47.910;20.390;2023-02-04T14:48:32;3.25;;;1.85;;